createdAt,value
2024-05-09T00:00:38.444Z,30
2024-05-09T00:02:03.812Z,28
2024-05-09T00:04:04.741Z,26
2024-05-09T00:05:05.250Z,26
2024-05-09T00:06:04.457Z,27
2024-05-09T00:08:04.072Z,29
2024-05-09T00:09:03.191Z,29
2024-05-09T00:10:38.415Z,29
2024-05-09T00:12:04.918Z,29
2024-05-09T00:13:03.765Z,29
2024-05-09T00:14:04.233Z,29
2024-05-09T00:15:04.021Z,29
2024-05-09T00:17:04.889Z,28
2024-05-09T00:19:04.641Z,27
2024-05-09T00:20:41.022Z,25
2024-05-09T00:22:03.994Z,25
2024-05-09T00:24:03.352Z,25
2024-05-09T00:25:04.031Z,25
2024-05-09T00:27:03.222Z,26
2024-05-09T00:28:03.340Z,26
2024-05-09T00:29:03.829Z,26
2024-05-09T00:30:37.092Z,25
2024-05-09T00:32:04.699Z,24
2024-05-09T00:33:11.652Z,24
2024-05-09T00:35:04.859Z,24
2024-05-09T00:36:03.898Z,23
2024-05-09T00:38:05.399Z,23
2024-05-09T00:40:31.125Z,25
2024-05-09T00:42:03.529Z,26
2024-05-09T00:43:03.552Z,23
2024-05-09T00:44:03.762Z,25
2024-05-09T00:45:04.454Z,24
2024-05-09T00:47:03.827Z,23
2024-05-09T00:48:05.849Z,25
2024-05-09T00:50:37.072Z,23
2024-05-09T00:51:03.805Z,23
2024-05-09T00:52:03.772Z,25
2024-05-09T00:53:03.932Z,25
2024-05-09T00:54:03.676Z,24
2024-05-09T00:55:04.433Z,24
2024-05-09T00:56:03.677Z,23
2024-05-09T00:58:03.687Z,24
2024-05-09T00:59:03.768Z,22
2024-05-09T01:00:41.178Z,24
2024-05-09T01:02:04.297Z,24
2024-05-09T01:03:05.471Z,24
2024-05-09T01:05:05.243Z,25
2024-05-09T01:07:03.864Z,23
2024-05-09T01:08:04.571Z,23
2024-05-09T01:10:35.525Z,23
2024-05-09T01:12:04.083Z,23
2024-05-09T01:14:04.025Z,24
2024-05-09T01:17:03.976Z,24
2024-05-09T01:19:05.499Z,25
2024-05-09T01:20:27.786Z,24
2024-05-09T01:22:03.742Z,23
2024-05-09T01:23:02.997Z,22
2024-05-09T01:24:03.390Z,22
2024-05-09T01:25:03.968Z,23
2024-05-09T01:27:03.349Z,23
2024-05-09T01:28:03.056Z,24
2024-05-09T01:29:03.477Z,23
2024-05-09T01:30:35.320Z,23
2024-05-09T01:32:03.476Z,24
2024-05-09T01:33:09.195Z,26
2024-05-09T01:35:03.957Z,26
2024-05-09T01:37:03.028Z,23
2024-05-09T01:38:04.293Z,24
2024-05-09T01:40:25.275Z,24
2024-05-09T01:43:03.702Z,23
2024-05-09T01:44:03.722Z,24
2024-05-09T01:45:04.318Z,23
2024-05-09T01:47:03.767Z,23
2024-05-09T01:48:05.463Z,22
2024-05-09T01:49:04.091Z,23
2024-05-09T01:50:16.545Z,24
2024-05-09T01:52:03.331Z,23
2024-05-09T01:53:03.933Z,24
2024-05-09T01:55:07.655Z,24
2024-05-09T01:57:03.769Z,23
2024-05-09T01:58:03.834Z,23
2024-05-09T01:59:03.767Z,22
2024-05-09T02:00:10.624Z,23
2024-05-09T02:02:05.362Z,23
2024-05-09T02:03:04.629Z,22
2024-05-09T02:04:05.303Z,21
2024-05-09T02:05:05.329Z,23
2024-05-09T02:07:03.814Z,23
2024-05-09T02:08:04.294Z,22
2024-05-09T02:10:33.653Z,21
2024-05-09T02:12:04.323Z,22
2024-05-09T02:14:04.358Z,22
2024-05-09T02:15:04.154Z,21
2024-05-09T02:17:04.075Z,22
2024-05-09T02:18:04.188Z,24
2024-05-09T02:19:04.484Z,23
2024-05-09T02:20:18.654Z,23
2024-05-09T02:22:03.688Z,23
2024-05-09T02:24:03.951Z,23
2024-05-09T02:25:03.737Z,22
2024-05-09T02:27:02.966Z,22
2024-05-09T02:28:03.421Z,21
2024-05-09T02:29:03.065Z,22
2024-05-09T02:30:42.276Z,23
2024-05-09T02:32:03.778Z,22
2024-05-09T02:33:04.172Z,22
2024-05-09T02:34:04.170Z,22
2024-05-09T02:35:04.355Z,22
2024-05-09T02:36:03.083Z,22
2024-05-09T02:37:03.951Z,22
2024-05-09T02:38:04.609Z,22
2024-05-09T02:40:33.184Z,22
2024-05-09T02:42:03.919Z,22
2024-05-09T02:43:04.108Z,22
2024-05-09T02:45:04.095Z,24
2024-05-09T02:47:04.217Z,23
2024-05-09T02:48:03.912Z,23
2024-05-09T02:49:04.489Z,22
2024-05-09T02:50:16.161Z,23
2024-05-09T02:52:03.347Z,24
2024-05-09T02:53:03.606Z,25
2024-05-09T02:54:03.390Z,23
2024-05-09T02:55:04.046Z,23
2024-05-09T02:56:03.275Z,22
2024-05-09T02:58:03.053Z,24
2024-05-09T02:59:03.871Z,24
2024-05-09T03:00:39.536Z,24
2024-05-09T03:02:04.052Z,25
2024-05-09T03:03:04.743Z,26
2024-05-09T03:04:04.143Z,25
2024-05-09T03:05:04.631Z,26
2024-05-09T03:06:03.513Z,26
2024-05-09T03:07:03.582Z,25
2024-05-09T03:08:04.066Z,24
2024-05-09T03:09:03.698Z,25
2024-05-09T03:10:35.053Z,25
2024-05-09T03:12:04.395Z,26
2024-05-09T03:14:03.892Z,24
2024-05-09T03:15:04.647Z,26
2024-05-09T03:17:03.820Z,32
2024-05-09T03:18:06.157Z,31
2024-05-09T03:20:34.688Z,27
2024-05-09T03:22:04.092Z,26
2024-05-09T03:24:03.720Z,26
2024-05-09T03:25:03.749Z,26
2024-05-09T03:27:03.180Z,27
2024-05-09T03:28:03.317Z,26
2024-05-09T03:29:03.423Z,25
2024-05-09T03:30:22.162Z,25
2024-05-09T03:32:04.618Z,24
2024-05-09T03:34:04.898Z,23
2024-05-09T03:37:03.589Z,24
2024-05-09T03:38:03.775Z,25
2024-05-09T03:39:03.734Z,26
2024-05-09T03:40:30.658Z,25
2024-05-09T03:42:03.296Z,27
2024-05-09T03:43:03.394Z,34
2024-05-09T03:44:03.743Z,36
2024-05-09T03:45:04.034Z,33
2024-05-09T03:47:03.528Z,30
2024-05-09T03:48:04.455Z,31
2024-05-09T03:49:03.732Z,31
2024-05-09T03:50:35.437Z,30
2024-05-09T03:52:03.607Z,30
2024-05-09T03:53:04.485Z,29
2024-05-09T03:54:03.610Z,29
2024-05-09T03:55:04.326Z,29
2024-05-09T03:57:03.647Z,30
2024-05-09T03:58:03.514Z,27
2024-05-09T03:59:04.015Z,28
2024-05-09T04:00:38.688Z,27
2024-05-09T04:02:04.364Z,29
2024-05-09T04:03:07.558Z,29
2024-05-09T04:05:04.880Z,29
2024-05-09T04:07:03.846Z,26
2024-05-09T04:08:03.978Z,27
2024-05-09T04:10:35.628Z,27
2024-05-09T04:12:06.071Z,27
2024-05-09T04:14:04.628Z,27
2024-05-09T04:15:08.166Z,26
2024-05-09T04:17:04.497Z,27
2024-05-09T04:18:03.650Z,26
2024-05-09T04:19:03.760Z,26
2024-05-09T04:20:38.294Z,24
2024-05-09T04:22:03.980Z,25
2024-05-09T04:23:03.124Z,26
2024-05-09T04:25:04.728Z,25
2024-05-09T04:27:03.692Z,25
2024-05-09T04:28:03.235Z,24
2024-05-09T04:29:03.597Z,24
2024-05-09T04:30:40.065Z,24
2024-05-09T04:31:03.444Z,24
2024-05-09T04:32:03.890Z,24
2024-05-09T04:33:04.859Z,25
2024-05-09T04:34:03.395Z,25
2024-05-09T04:35:04.758Z,25
2024-05-09T04:38:04.055Z,24
2024-05-09T04:40:36.991Z,24
2024-05-09T04:42:03.332Z,24
2024-05-09T04:43:03.282Z,24
2024-05-09T04:44:03.583Z,23
2024-05-09T04:45:04.410Z,23
2024-05-09T04:47:03.785Z,24
2024-05-09T04:48:05.654Z,24
2024-05-09T04:50:29.930Z,24
2024-05-09T04:52:04.152Z,22
2024-05-09T04:53:05.256Z,24
2024-05-09T04:54:03.896Z,23
2024-05-09T04:55:04.267Z,22
2024-05-09T04:57:03.714Z,23
2024-05-09T04:58:03.125Z,24
2024-05-09T04:59:03.696Z,24
2024-05-09T05:00:38.413Z,24
2024-05-09T05:02:03.947Z,24
2024-05-09T05:03:05.273Z,24
2024-05-09T05:04:03.186Z,25
2024-05-09T05:05:05.131Z,26
2024-05-09T05:07:03.798Z,24
2024-05-09T05:08:03.847Z,25
2024-05-09T05:09:03.365Z,25
2024-05-09T05:10:33.721Z,25
2024-05-09T05:12:04.439Z,25
2024-05-09T05:14:04.071Z,25
2024-05-09T05:15:04.558Z,25
2024-05-09T05:17:04.096Z,26
2024-05-09T05:18:04.498Z,26
2024-05-09T05:19:17.687Z,26
2024-05-09T05:20:26.993Z,26
2024-05-09T05:22:03.853Z,27
2024-05-09T05:23:04.083Z,26
2024-05-09T05:25:05.224Z,26
2024-05-09T05:27:02.958Z,27
2024-05-09T05:28:02.982Z,27
2024-05-09T05:29:03.296Z,28
2024-05-09T05:30:35.254Z,27
2024-05-09T05:32:04.738Z,28
2024-05-09T05:33:04.268Z,26
2024-05-09T05:35:04.238Z,25
2024-05-09T05:37:03.875Z,27
2024-05-09T05:39:04.096Z,26
2024-05-09T05:40:12.063Z,26
2024-05-09T05:42:03.334Z,26
2024-05-09T05:43:03.409Z,27
2024-05-09T05:44:03.778Z,27
2024-05-09T05:45:10.394Z,27
2024-05-09T05:47:03.306Z,27
2024-05-09T05:48:06.233Z,26
2024-05-09T05:49:04.052Z,27
2024-05-09T05:50:38.700Z,28
2024-05-09T05:52:03.392Z,30
2024-05-09T05:53:03.928Z,27
2024-05-09T05:55:04.123Z,27
2024-05-09T05:57:03.563Z,27
2024-05-09T05:58:03.570Z,27
2024-05-09T05:59:03.724Z,28
2024-05-09T06:00:39.445Z,27
2024-05-09T06:02:04.253Z,28
2024-05-09T06:03:04.032Z,27
2024-05-09T06:04:04.191Z,27
2024-05-09T06:05:05.403Z,28
2024-05-09T06:07:04.052Z,27
2024-05-09T06:08:04.215Z,26
2024-05-09T06:09:03.841Z,28
2024-05-09T06:10:39.314Z,27
2024-05-09T06:12:04.774Z,27
2024-05-09T06:14:04.207Z,27
2024-05-09T06:15:04.387Z,27
2024-05-09T06:17:04.133Z,29
2024-05-09T06:18:04.979Z,29
2024-05-09T06:20:37.388Z,28
2024-05-09T06:22:03.842Z,27
2024-05-09T06:23:04.920Z,27
2024-05-09T06:24:07.284Z,29
2024-05-09T06:28:04.801Z,27
2024-05-09T06:30:29.411Z,28
2024-05-09T06:31:03.145Z,28
2024-05-09T06:32:03.751Z,31
2024-05-09T06:33:03.720Z,29
2024-05-09T06:34:05.143Z,29
2024-05-09T06:37:03.168Z,30
2024-05-09T06:38:03.849Z,30
2024-05-09T06:40:17.547Z,28
2024-05-09T06:42:03.296Z,30
2024-05-09T06:43:03.701Z,30
2024-05-09T06:44:04.234Z,29
2024-05-09T06:46:03.343Z,29
2024-05-09T06:47:03.739Z,28
2024-05-09T06:48:04.964Z,29
2024-05-09T06:49:03.865Z,28
2024-05-09T06:50:37.923Z,28
2024-05-09T06:52:03.452Z,29
2024-05-09T06:53:03.587Z,28
2024-05-09T06:55:04.095Z,30
2024-05-09T06:57:02.275Z,30
2024-05-09T06:58:03.412Z,31
2024-05-09T06:59:03.427Z,30
2024-05-09T07:00:39.492Z,29
2024-05-09T07:02:03.521Z,31
2024-05-09T07:03:07.637Z,31
2024-05-09T07:05:05.741Z,30
2024-05-09T07:07:03.571Z,31
2024-05-09T07:08:04.140Z,30
2024-05-09T07:10:32.735Z,28
2024-05-09T07:12:04.471Z,30
2024-05-09T07:13:03.556Z,29
2024-05-09T07:14:03.963Z,28
2024-05-09T07:15:04.267Z,30
2024-05-09T07:16:03.918Z,30
2024-05-09T07:17:04.398Z,31
2024-05-09T07:18:04.851Z,32
2024-05-09T07:19:05.736Z,31
2024-05-09T07:20:35.296Z,30
2024-05-09T07:22:03.971Z,31
2024-05-09T07:23:04.607Z,33
2024-05-09T07:24:03.743Z,30
2024-05-09T07:25:04.609Z,31
2024-05-09T07:27:03.798Z,32
2024-05-09T07:28:03.824Z,31
2024-05-09T07:29:03.964Z,32
2024-05-09T07:30:30.991Z,34
2024-05-09T07:32:04.141Z,32
2024-05-09T07:33:05.826Z,32
2024-05-09T07:35:04.186Z,31
2024-05-09T07:36:03.524Z,32
2024-05-09T07:37:03.563Z,31
2024-05-09T07:38:03.353Z,30
2024-05-09T07:39:03.489Z,31
2024-05-09T07:40:28.378Z,33
2024-05-09T07:43:03.482Z,29
2024-05-09T07:44:03.499Z,29
2024-05-09T07:46:00.642Z,30
2024-05-09T07:53:29.581Z,26
2024-05-09T07:53:38.104Z,27
2024-05-09T07:56:03.709Z,25
2024-05-09T07:57:04.283Z,22
2024-05-09T07:58:03.939Z,22
2024-05-09T08:00:17.623Z,27
2024-05-09T08:02:04.854Z,17
2024-05-09T08:03:02.894Z,16
2024-05-09T08:04:04.456Z,17
2024-05-09T08:05:04.950Z,17
2024-05-09T08:06:03.968Z,17
2024-05-09T08:07:04.252Z,17
2024-05-09T08:08:03.589Z,17
2024-05-09T08:09:22.026Z,17
2024-05-09T08:11:03.911Z,16
2024-05-09T08:14:03.576Z,16
2024-05-09T08:15:03.782Z,16
2024-05-09T08:16:03.770Z,16
2024-05-09T08:17:04.014Z,17
2024-05-09T08:18:04.475Z,18
2024-05-09T08:19:04.716Z,16
2024-05-09T08:20:11.342Z,17
2024-05-09T08:22:04.040Z,15
2024-05-09T08:23:03.472Z,16
2024-05-09T08:24:03.737Z,14
2024-05-09T08:25:04.759Z,16
2024-05-09T08:27:03.831Z,18
2024-05-09T08:28:04.342Z,18
2024-05-09T08:30:38.593Z,19
2024-05-09T08:32:04.497Z,21
2024-05-09T08:34:05.054Z,24
2024-05-09T08:37:37.892Z,18
2024-05-09T08:39:03.434Z,17
2024-05-09T08:40:34.383Z,21
2024-05-09T08:42:03.881Z,18
2024-05-09T08:43:04.755Z,18
2024-05-09T08:45:04.537Z,17
2024-05-09T08:47:03.574Z,21
2024-05-09T08:48:04.359Z,18
2024-05-09T08:49:03.854Z,17
2024-05-09T08:50:37.621Z,18
2024-05-09T08:52:03.485Z,17
2024-05-09T08:53:03.288Z,18
2024-05-09T08:54:03.446Z,18
2024-05-09T08:55:04.281Z,18
2024-05-09T08:56:03.529Z,18
2024-05-09T08:57:03.282Z,18
2024-05-09T08:58:03.830Z,21
2024-05-09T08:59:04.075Z,20
2024-05-09T09:00:37.251Z,18
2024-05-09T09:02:04.567Z,19
2024-05-09T09:04:05.014Z,18
2024-05-09T09:07:04.758Z,16
2024-05-09T09:08:03.112Z,16
2024-05-09T09:09:03.474Z,17
2024-05-09T09:10:21.060Z,17
2024-05-09T09:12:03.460Z,18
2024-05-09T09:13:04.004Z,18
2024-05-09T09:14:03.124Z,18
2024-05-09T09:15:04.354Z,18
2024-05-09T09:16:04.326Z,19
2024-05-09T09:18:03.859Z,18
2024-05-09T09:19:05.146Z,21
2024-05-09T09:20:26.410Z,18
2024-05-09T09:22:04.680Z,18
2024-05-09T09:24:03.855Z,19
2024-05-09T09:25:05.469Z,21
2024-05-09T09:27:04.021Z,19
2024-05-09T09:28:04.076Z,19
2024-05-09T09:29:03.862Z,21
2024-05-09T09:30:37.441Z,20
2024-05-09T09:32:04.635Z,19
2024-05-09T09:33:04.161Z,19
2024-05-09T09:34:05.142Z,19
2024-05-09T09:37:04.193Z,20
2024-05-09T09:38:04.033Z,21
2024-05-09T09:40:08.898Z,23
2024-05-09T09:42:03.518Z,19
2024-05-09T09:44:03.607Z,21
2024-05-09T09:45:06.690Z,22
2024-05-09T09:47:03.418Z,21
2024-05-09T09:48:04.296Z,21
2024-05-09T09:49:03.368Z,21
2024-05-09T09:50:35.139Z,22
2024-05-09T09:52:04.166Z,19
2024-05-09T09:53:03.484Z,19
2024-05-09T09:54:03.813Z,19
2024-05-09T09:55:04.540Z,21
2024-05-09T09:57:03.663Z,19
2024-05-09T09:58:03.706Z,19
2024-05-09T10:00:33.914Z,19
2024-05-09T10:02:04.980Z,19
2024-05-09T10:03:03.726Z,19
2024-05-09T10:04:04.841Z,18
2024-05-09T10:05:04.017Z,18
2024-05-09T10:07:04.433Z,18
2024-05-09T10:08:03.663Z,18
2024-05-09T10:09:03.947Z,20
2024-05-09T10:10:22.831Z,19
2024-05-09T10:11:04.056Z,19
2024-05-09T10:12:09.681Z,21
2024-05-09T10:13:03.645Z,19
2024-05-09T10:14:03.763Z,19
2024-05-09T10:15:04.776Z,21
2024-05-09T10:17:04.184Z,21
2024-05-09T10:18:04.456Z,22
2024-05-09T10:19:05.357Z,22
2024-05-09T10:20:24.664Z,22
2024-05-09T10:22:04.205Z,22
2024-05-09T10:23:03.694Z,22
2024-05-09T10:24:03.862Z,19
2024-05-09T10:25:06.576Z,18
2024-05-09T10:27:03.804Z,21
2024-05-09T10:28:03.696Z,21
2024-05-09T10:29:03.988Z,19
2024-05-09T10:30:36.848Z,21
2024-05-09T10:32:04.102Z,21
2024-05-09T10:34:05.183Z,21
2024-05-09T10:35:05.215Z,20
2024-05-09T10:37:06.328Z,21
2024-05-09T10:39:03.477Z,21
2024-05-09T10:40:32.128Z,21
2024-05-09T10:42:03.338Z,19
2024-05-09T10:43:07.089Z,22
2024-05-09T10:45:03.877Z,19
2024-05-09T10:47:03.554Z,19
2024-05-09T10:48:04.269Z,18
2024-05-09T10:49:08.938Z,20
2024-05-09T10:50:34.421Z,21
2024-05-09T10:52:03.794Z,19
2024-05-09T10:53:03.138Z,19
2024-05-09T10:55:06.944Z,19
2024-05-09T10:56:03.369Z,18
2024-05-09T10:57:03.526Z,19
2024-05-09T10:58:02.952Z,21
2024-05-09T10:59:04.026Z,21
2024-05-09T11:00:36.298Z,21
2024-05-09T11:01:07.643Z,21
2024-05-09T11:04:04.845Z,20
2024-05-09T11:05:05.832Z,19
2024-05-09T11:07:06.536Z,21
2024-05-09T11:09:04.238Z,21
2024-05-09T11:10:25.122Z,20
2024-05-09T11:12:03.750Z,22
2024-05-09T11:13:04.064Z,22
2024-05-09T11:15:04.351Z,21
2024-05-09T11:16:03.557Z,21
2024-05-09T11:17:04.034Z,22
2024-05-09T11:18:04.042Z,21
2024-05-09T11:19:04.591Z,21
2024-05-09T11:20:34.993Z,22
2024-05-09T11:22:03.972Z,21
2024-05-09T11:23:03.770Z,19
2024-05-09T11:24:11.435Z,21
2024-05-09T11:28:04.367Z,19
2024-05-09T11:30:31.835Z,21
2024-05-09T11:32:03.574Z,18
2024-05-09T11:33:03.897Z,21
2024-05-09T11:34:03.611Z,19
2024-05-09T11:35:04.332Z,18
2024-05-09T11:37:03.968Z,21
2024-05-09T11:39:03.480Z,22
2024-05-09T11:40:34.907Z,21
2024-05-09T11:42:03.574Z,18
2024-05-09T11:43:03.683Z,19
2024-05-09T11:45:04.485Z,21
2024-05-09T11:47:03.107Z,21
2024-05-09T11:48:04.494Z,21
2024-05-09T11:49:04.813Z,24
2024-05-09T11:50:35.107Z,19
2024-05-09T11:52:03.787Z,20
2024-05-09T11:53:03.429Z,22
2024-05-09T11:54:04.035Z,21
2024-05-09T11:55:04.839Z,19
2024-05-09T11:56:04.323Z,21
2024-05-09T11:58:04.560Z,21
2024-05-09T12:00:37.227Z,19
2024-05-09T12:02:04.208Z,21
2024-05-09T12:04:05.755Z,19
2024-05-09T12:05:05.815Z,19
2024-05-09T12:07:03.828Z,21
2024-05-09T12:08:03.562Z,20
2024-05-09T12:09:03.691Z,19
2024-05-09T12:10:35.215Z,20
2024-05-09T12:12:03.473Z,21
2024-05-09T12:13:08.755Z,18
2024-05-09T12:15:04.340Z,22
2024-05-09T12:17:04.291Z,19
2024-05-09T12:18:05.808Z,19
2024-05-09T12:20:39.753Z,19
2024-05-09T12:22:04.395Z,19
2024-05-09T12:23:03.760Z,18
2024-05-09T12:24:03.894Z,21
2024-05-09T12:25:04.823Z,22
2024-05-09T12:26:03.801Z,21
2024-05-09T12:27:03.973Z,21
2024-05-09T12:28:04.375Z,19
2024-05-09T12:30:41.962Z,21
2024-05-09T12:32:04.309Z,18
2024-05-09T12:33:04.939Z,19
2024-05-09T12:34:04.851Z,19
2024-05-09T12:36:04.097Z,18
2024-05-09T12:37:04.514Z,18
2024-05-09T12:38:04.098Z,19
2024-05-09T12:40:39.206Z,21
2024-05-09T12:42:03.651Z,22
2024-05-09T12:44:08.019Z,22
2024-05-09T12:46:03.843Z,21
2024-05-09T12:48:04.245Z,22
2024-05-09T12:49:05.269Z,20
2024-05-09T12:50:33.619Z,18
2024-05-09T12:52:03.826Z,19
2024-05-09T12:53:05.767Z,21
2024-05-09T12:55:04.687Z,18
2024-05-09T12:56:04.366Z,17
2024-05-09T12:58:04.054Z,18
2024-05-09T12:59:03.317Z,18
2024-05-09T13:00:31.875Z,19
2024-05-09T13:02:04.880Z,22
2024-05-09T13:03:03.952Z,21
2024-05-09T13:04:04.642Z,19
2024-05-09T13:05:05.775Z,21
2024-05-09T13:07:08.855Z,20
2024-05-09T13:09:03.485Z,19
2024-05-09T13:10:25.113Z,19
2024-05-09T13:12:03.424Z,20
2024-05-09T13:13:04.009Z,23
2024-05-09T13:14:03.544Z,19
2024-05-09T13:15:04.586Z,21
2024-05-09T13:17:03.783Z,21
2024-05-09T13:18:04.861Z,19
2024-05-09T13:20:35.517Z,20
2024-05-09T13:22:03.769Z,22
2024-05-09T13:23:03.669Z,21
2024-05-09T13:24:03.817Z,19
2024-05-09T13:25:05.020Z,18
2024-05-09T13:27:03.375Z,21
2024-05-09T13:28:04.337Z,19
2024-05-09T13:29:03.501Z,19
2024-05-09T13:30:38.776Z,18
2024-05-09T13:32:03.759Z,19
2024-05-09T13:33:04.540Z,19
2024-05-09T13:34:04.605Z,19
2024-05-09T13:36:03.747Z,18
2024-05-09T13:37:04.054Z,19
2024-05-09T13:38:05.832Z,19
2024-05-09T13:40:14.718Z,22
2024-05-09T13:42:04.002Z,18
2024-05-09T13:43:05.693Z,19
2024-05-09T13:44:04.097Z,21
2024-05-09T13:45:04.957Z,18
2024-05-09T13:47:04.136Z,22
2024-05-09T13:48:05.429Z,22
2024-05-09T13:50:37.268Z,24
2024-05-09T13:52:04.294Z,21
2024-05-09T13:53:03.967Z,19
2024-05-09T13:54:03.780Z,21
2024-05-09T13:55:04.876Z,21
2024-05-09T13:56:03.905Z,21
2024-05-09T13:58:04.463Z,22
2024-05-09T13:59:03.823Z,19
2024-05-09T14:00:49.343Z,19
2024-05-09T14:02:04.853Z,19
2024-05-09T14:03:04.877Z,19
2024-05-09T14:04:04.907Z,18
2024-05-09T14:05:05.760Z,18
2024-05-09T14:07:04.131Z,20
2024-05-09T14:08:04.029Z,18
2024-05-09T14:09:04.213Z,18
2024-05-09T14:10:33.166Z,17
2024-05-09T14:12:03.781Z,18
2024-05-09T14:13:04.459Z,22
2024-05-09T14:14:03.718Z,20
2024-05-09T14:15:04.414Z,18
2024-05-09T14:17:05.392Z,18
2024-05-09T14:19:03.950Z,21
2024-05-09T14:20:31.842Z,19
2024-05-09T14:24:03.839Z,18
2024-05-09T14:25:05.391Z,19
2024-05-09T14:27:03.855Z,22
2024-05-09T14:28:04.542Z,22
2024-05-09T14:29:04.339Z,20
2024-05-09T14:30:39.039Z,21
2024-05-09T14:32:03.926Z,23
2024-05-09T14:33:06.625Z,19
2024-05-09T14:35:05.601Z,19
2024-05-09T14:37:03.320Z,19
2024-05-09T14:38:03.620Z,22
2024-05-09T14:39:02.995Z,22
2024-05-09T14:40:44.281Z,19
2024-05-09T14:42:03.279Z,18
2024-05-09T14:43:04.295Z,17
2024-05-09T14:45:03.987Z,19
2024-05-09T14:47:03.573Z,17
2024-05-09T14:48:05.423Z,19
2024-05-09T14:50:35.245Z,19
2024-05-09T14:52:03.798Z,22
2024-05-09T14:54:03.590Z,18
2024-05-09T14:55:04.799Z,18
2024-05-09T14:56:03.667Z,21
2024-05-09T14:58:04.322Z,19
2024-05-09T15:00:37.784Z,18
2024-05-09T15:02:04.265Z,18
2024-05-09T15:03:04.204Z,18
2024-05-09T15:04:04.329Z,18
2024-05-09T15:05:05.410Z,17
2024-05-09T15:07:03.496Z,18
2024-05-09T15:08:03.223Z,18
2024-05-09T15:09:03.162Z,19
2024-05-09T15:10:36.496Z,18
2024-05-09T15:12:03.146Z,18
2024-05-09T15:13:05.006Z,17
2024-05-09T15:15:04.098Z,17
2024-05-09T15:17:03.048Z,18
2024-05-09T15:18:03.963Z,17
2024-05-09T15:19:03.787Z,18
2024-05-09T15:20:34.512Z,18
2024-05-09T15:22:04.511Z,17
2024-05-09T15:23:04.606Z,18
2024-05-09T15:25:04.342Z,17
2024-05-09T15:26:03.291Z,17
2024-05-09T15:28:04.040Z,18
2024-05-09T15:29:03.364Z,17
2024-05-09T15:30:15.548Z,17
2024-05-09T15:32:03.685Z,18
2024-05-09T15:33:04.597Z,18
2024-05-09T15:35:04.262Z,18
2024-05-09T15:37:03.867Z,18
2024-05-09T15:38:05.380Z,17
2024-05-09T15:40:37.959Z,18
2024-05-09T15:41:03.465Z,19
2024-05-09T15:43:03.951Z,18
2024-05-09T15:45:04.520Z,19
2024-05-09T15:47:03.229Z,18
2024-05-09T15:48:04.956Z,18
2024-05-09T15:49:04.099Z,17
2024-05-09T15:50:41.386Z,16
2024-05-09T15:52:03.596Z,17
2024-05-09T15:53:03.163Z,18
2024-05-09T15:54:03.306Z,18
2024-05-09T15:55:04.590Z,18
2024-05-09T15:58:07.466Z,19
2024-05-09T16:00:40.810Z,19
2024-05-09T16:02:04.093Z,17
2024-05-09T16:04:05.313Z,20
2024-05-09T16:05:05.749Z,22
2024-05-09T16:07:04.031Z,19
2024-05-09T16:08:03.928Z,19
2024-05-09T16:09:04.010Z,21
2024-05-09T16:10:26.116Z,18
2024-05-09T16:12:03.800Z,18
2024-05-09T16:13:05.314Z,19
2024-05-09T16:15:06.131Z,19
2024-05-09T16:17:04.743Z,19
2024-05-09T16:18:04.100Z,18
2024-05-09T16:19:04.344Z,18
2024-05-09T16:20:41.555Z,19
2024-05-09T16:22:04.218Z,18
2024-05-09T16:23:04.339Z,18
2024-05-09T16:24:03.635Z,18
2024-05-09T16:25:05.522Z,18
2024-05-09T16:27:03.036Z,19
2024-05-09T16:28:11.560Z,19
2024-05-09T16:30:36.368Z,18
2024-05-09T16:31:03.627Z,19
2024-05-09T16:32:03.672Z,18
2024-05-09T16:33:07.015Z,21
2024-05-09T16:35:05.147Z,19
2024-05-09T16:37:03.778Z,18
2024-05-09T16:38:04.772Z,19
2024-05-09T16:40:40.103Z,19
2024-05-09T16:42:03.509Z,21
2024-05-09T16:43:05.460Z,18
2024-05-09T16:45:05.499Z,19
2024-05-09T16:47:04.025Z,19
2024-05-09T16:48:06.068Z,21
2024-05-09T16:50:19.439Z,19
2024-05-09T16:52:04.348Z,18
2024-05-09T16:53:07.622Z,18
2024-05-09T16:55:05.707Z,18
2024-05-09T16:57:03.116Z,18
2024-05-09T16:58:05.824Z,19
2024-05-09T16:59:03.303Z,18
2024-05-09T17:00:43.820Z,18
2024-05-09T17:02:04.913Z,17
2024-05-09T17:04:06.058Z,23
2024-05-09T17:05:05.045Z,18
2024-05-09T17:07:04.182Z,19
2024-05-09T17:08:03.733Z,18
2024-05-09T17:09:20.743Z,17
2024-05-09T17:11:04.392Z,21
2024-05-09T17:12:03.512Z,21
2024-05-09T17:13:08.863Z,21
2024-05-09T17:15:04.793Z,17
2024-05-09T17:17:04.264Z,17
2024-05-09T17:18:03.372Z,17
2024-05-09T17:19:04.264Z,17
2024-05-09T17:20:35.930Z,18
2024-05-09T17:22:04.325Z,18
2024-05-09T17:23:04.796Z,18
2024-05-09T17:24:03.831Z,17
2024-05-09T17:25:05.282Z,18
2024-05-09T17:27:04.138Z,19
2024-05-09T17:29:03.185Z,17
2024-05-09T17:30:24.856Z,19
2024-05-09T17:32:03.346Z,19
2024-05-09T17:33:05.635Z,17
2024-05-09T17:34:04.464Z,17
2024-05-09T17:35:05.462Z,17
2024-05-09T17:37:04.112Z,19
2024-05-09T17:39:03.528Z,17
2024-05-09T17:40:35.466Z,19
2024-05-09T17:42:03.692Z,18
2024-05-09T17:43:10.455Z,17
2024-05-09T17:44:03.130Z,19
2024-05-09T17:45:05.061Z,18
2024-05-09T17:47:04.080Z,18
2024-05-09T17:48:03.745Z,18
2024-05-09T17:49:04.828Z,19
2024-05-09T17:50:38.432Z,18
2024-05-09T17:52:04.456Z,17
2024-05-09T17:54:03.434Z,17
2024-05-09T17:55:04.488Z,17
2024-05-09T17:57:03.217Z,18
2024-05-09T17:58:05.752Z,17
2024-05-09T18:00:28.159Z,16
2024-05-09T18:02:04.857Z,18
2024-05-09T18:03:05.063Z,18
2024-05-09T18:04:03.380Z,18
2024-05-09T18:05:05.835Z,19
2024-05-09T18:08:03.346Z,18
2024-05-09T18:09:03.351Z,18
2024-05-09T18:10:35.960Z,17
2024-05-09T18:11:03.695Z,16
2024-05-09T18:13:04.054Z,17
2024-05-09T18:14:03.781Z,18
2024-05-09T18:15:04.546Z,17
2024-05-09T18:16:04.236Z,19
2024-05-09T18:18:06.508Z,19
2024-05-09T18:19:04.481Z,18
2024-05-09T18:20:19.980Z,18
2024-05-09T18:22:04.316Z,18
2024-05-09T18:23:03.283Z,18
2024-05-09T18:24:03.701Z,17
2024-05-09T18:25:04.930Z,18
2024-05-09T18:26:03.962Z,17
2024-05-09T18:28:04.509Z,18
2024-05-09T18:30:38.381Z,17
2024-05-09T18:32:04.016Z,17
2024-05-09T18:33:09.218Z,17
2024-05-09T18:34:03.342Z,17
2024-05-09T18:35:04.827Z,17
2024-05-09T18:37:06.175Z,17
2024-05-09T18:39:03.967Z,18
2024-05-09T18:40:31.407Z,18
2024-05-09T18:42:03.968Z,17
2024-05-09T18:43:09.665Z,19
2024-05-09T18:45:04.862Z,18
2024-05-09T18:47:04.205Z,18
2024-05-09T18:49:05.314Z,17
2024-05-09T18:50:40.401Z,18
2024-05-09T18:52:03.594Z,18
2024-05-09T18:53:03.213Z,18
2024-05-09T18:54:02.984Z,17
2024-05-09T18:55:04.570Z,18
2024-05-09T18:58:04.026Z,18
2024-05-09T18:59:03.153Z,18
2024-05-09T19:00:35.980Z,18
2024-05-09T19:02:04.356Z,17
2024-05-09T19:03:06.911Z,17
2024-05-09T19:04:04.009Z,16
2024-05-09T19:05:05.545Z,16
2024-05-09T19:07:03.754Z,16
2024-05-09T19:08:03.954Z,18
2024-05-09T19:10:34.895Z,17
2024-05-09T19:12:03.970Z,17
2024-05-09T19:13:15.483Z,17
2024-05-09T19:15:06.255Z,16
2024-05-09T19:17:04.153Z,16
2024-05-09T19:18:04.801Z,16
2024-05-09T19:19:06.313Z,16
2024-05-09T19:20:34.897Z,16
2024-05-09T19:22:04.708Z,18
2024-05-09T19:24:03.484Z,17
2024-05-09T19:25:05.322Z,17
2024-05-09T19:27:03.779Z,18
2024-05-09T19:28:06.191Z,18
2024-05-09T19:29:04.157Z,17
2024-05-09T19:30:42.962Z,18
2024-05-09T19:32:04.465Z,17
2024-05-09T19:34:03.486Z,19
2024-05-09T19:35:04.471Z,19
2024-05-09T19:37:04.205Z,18
2024-05-09T19:38:04.158Z,18
2024-05-09T19:39:03.960Z,18
2024-05-09T19:40:34.062Z,18
2024-05-09T19:42:04.048Z,17
2024-05-09T19:43:06.960Z,18
2024-05-09T19:45:07.041Z,18
2024-05-09T19:47:03.706Z,17
2024-05-09T19:48:07.318Z,19
2024-05-09T19:49:04.251Z,18
2024-05-09T19:50:42.946Z,17
2024-05-09T19:52:04.274Z,19
2024-05-09T19:54:03.772Z,20
2024-05-09T19:55:04.907Z,17
2024-05-09T19:57:03.607Z,20
2024-05-09T19:58:09.093Z,18
2024-05-09T20:00:29.309Z,19
2024-05-09T20:02:04.985Z,18
2024-05-09T20:04:05.347Z,22
2024-05-09T20:05:06.657Z,19
2024-05-09T20:07:04.297Z,22
2024-05-09T20:08:04.005Z,20
2024-05-09T20:10:34.174Z,22
2024-05-09T20:12:04.229Z,22
2024-05-09T20:13:09.086Z,21
2024-05-09T20:15:05.013Z,21
2024-05-09T20:17:03.805Z,21
2024-05-09T20:18:06.528Z,21
2024-05-09T20:20:41.912Z,21
2024-05-09T20:22:04.129Z,19
2024-05-09T20:23:03.805Z,21
2024-05-09T20:24:03.856Z,19
2024-05-09T20:25:05.047Z,21